Trans Exeter — 9HA2572 — position and weather

sailwx.info

Track history (hours):
 
Tides and Currents Weather Stations Pressure Air Temp Water Temp Dewpoint Dewpoint Depression Visibility Wind Speed Wind Dir Waves Ship Positions

Trans Exeter

Last reported at 2015-Aug-05 05:33 UTC. Time now 2015-Aug-05 06:22 UTC.
Position N 41°45' E 003°31'.

Length 118 m; draft 6.8 m.

Type: Ship (hazmat cat C). MMSI: 248908000.

Date/timePositionNaut miles runAvg speedWind from/ knotsBaromVisibWave heightAir tempDewpointWater temp
2015-Aug-05 05:33N 41°45' E 003°31'6314.5
2015-Aug-05 01:14N 42°35' E 004°22'1014.7
2015-Aug-05 00:32N 42°43' E 004°31'1514.9
2015-Aug-04 23:33N 42°55' E 004°43'1414.5
2015-Aug-04 22:33N 43°06' E 004°55'1313.2
2015-Aug-04 21:33N 43°19' E 004°59'6 6.1
2015-Aug-04 20:33N 43°24' E 005°03'5 4.5
2015-Aug-04 19:33N 43°27' E 005°08'1 0.0
2015-Aug-03 15:22N 43°28' E 005°09'4 5.5
2015-Aug-03 14:33N 43°24' E 005°04'5 4.9
2015-Aug-03 13:33N 43°24' E 004°58'0 0.0
2015-Aug-03 12:33N 43°24' E 004°58'0 0.0
2015-Aug-03 11:32N 43°24' E 004°58'0 0.0
2015-Aug-03 10:32N 43°24' E 004°58'0 0.1
2015-Aug-03 09:32N 43°23' E 004°58'0 0.1
2015-Aug-03 08:32N 43°23' E 004°58'0 0.0
2015-Aug-03 07:32N 43°23' E 004°58'0 0.0
2015-Aug-03 06:32N 43°23' E 004°58'0 0.0
2015-Aug-03 05:32N 43°23' E 004°58'0 0.0
2015-Aug-03 04:32N 43°23' E 004°58'0 0.0
2015-Aug-03 03:32N 43°23' E 004°58'0 0.1
2015-Aug-03 02:33N 43°23' E 004°58'1211.8
2015-Aug-03 01:34N 43°12' E 005°02'1413.8
2015-Aug-03 00:33N 43°04' E 005°17'1414.2
2015-Aug-02 23:33N 42°55' E 005°33'1814.0
2015-Aug-02 22:15N 42°44' E 005°53'1012.6
2015-Aug-02 21:30N 42°41' E 006°05'1814.0
2015-Aug-02 20:12N 42°46' E 006°29'914.4
2015-Aug-02 19:33N 42°49' E 006°41'1414.1
2015-Aug-02 18:33N 42°53' E 006°59'1613.8
2015-Aug-02 17:22N 42°58' E 007°21'1713.8
2015-Aug-02 16:09N 43°03' E 007°42'814.2
2015-Aug-02 15:34N 43°06' E 007°54'1413.5
2015-Aug-02 14:33N 43°15' E 008°07'1414.1
2015-Aug-02 13:33N 43°26' E 008°19'1514.1
2015-Aug-02 12:30N 43°38' E 008°30'1414.4
2015-Aug-02 11:33N 43°49' E 008°41'1413.9
2015-Aug-02 10:34N 44°01' E 008°51'1515.3
2015-Aug-02 09:34N 44°16' E 008°46'9 8.8
2015-Aug-02 08:29N 44°25' E 008°50'0 0.0
2015-Aug-02 07:33N 44°25' E 008°50'0 0.0
2015-Aug-02 06:33N 44°25' E 008°50'0 0.0
2015-Aug-02 05:33N 44°25' E 008°50'0 0.0
2015-Aug-02 04:33N 44°25' E 008°50'0 0.0
2015-Aug-02 03:33N 44°25' E 008°50'0 0.0
2015-Aug-02 02:33N 44°25' E 008°50'0 0.0
2015-Aug-02 01:33N 44°25' E 008°50'0 0.0
2015-Aug-02 00:33N 44°25' E 008°50'0 0.0
2015-Aug-01 23:33N 44°25' E 008°50'0 0.0
2015-Aug-01 22:33N 44°25' E 008°50'0 0.0
2015-Aug-01 21:33N 44°25' E 008°50'0 0.0
2015-Aug-01 20:33N 44°25' E 008°50'0 0.0
2015-Aug-01 19:33N 44°25' E 008°50'0 0.0
2015-Aug-01 18:33N 44°25' E 008°50'0 0.0
2015-Aug-01 17:33N 44°25' E 008°50'0 0.0
2015-Aug-01 16:33N 44°25' E 008°50'0 0.0
2015-Aug-01 15:33N 44°25' E 008°50'3 3.0
2015-Aug-01 14:33N 44°23' E 008°47'8 7.9
2015-Aug-01 13:33N 44°16' E 008°43'1312.8
2015-Aug-01 12:33N 44°04' E 008°36'1313.0
2015-Aug-01 11:33N 43°52' E 008°28'1413.8
2015-Aug-01 10:33N 43°40' E 008°20'6513.0
2015-Aug-01 05:32N 42°56' E 007°13'4214.1
2015-Aug-01 02:33N 42°44' E 006°18'1414.4
2015-Aug-01 01:33N 42°41' E 005°59'1514.3
2015-Aug-01 00:32N 42°49' E 005°43'1414.3
2015-Jul-31 23:33N 42°57' E 005°27'1514.6
2015-Jul-31 22:33N 43°06' E 005°11'1413.7
2015-Jul-31 21:33N 43°17' E 004°60'8 7.6
2015-Jul-31 20:33N 43°24' E 005°02'4 3.8
2015-Jul-31 19:34N 43°26' E 005°06'3 2.0
2015-Jul-31 18:17N 43°27' E 005°09'0 0.0
2015-Jul-31 17:34N 43°27' E 005°09'0 0.0
2015-Jul-31 16:34N 43°27' E 005°09'0 0.0
2015-Jul-31 15:34N 43°27' E 005°09'0 0.0
2015-Jul-31 14:33N 43°27' E 005°09'0 0.0
2015-Jul-31 13:33N 43°27' E 005°09'0 0.0
2015-Jul-31 12:33N 43°27' E 005°09'0 0.0
2015-Jul-31 11:33N 43°27' E 005°09'0 0.0
2015-Jul-31 10:33N 43°27' E 005°09'0 0.0
2015-Jul-31 09:33N 43°27' E 005°09'0 0.0
2015-Jul-31 08:33N 43°27' E 005°09'0 0.0
2015-Jul-31 07:33N 43°27' E 005°09'0 0.0
2015-Jul-31 06:34N 43°27' E 005°09'0 0.0
2015-Jul-31 05:34N 43°27' E 005°09'0 0.0
2015-Jul-31 04:33N 43°27' E 005°09'0 0.0
2015-Jul-31 03:33N 43°27' E 005°09'0 0.0
2015-Jul-31 02:33N 43°27' E 005°09'0 0.0
2015-Jul-31 01:33N 43°27' E 005°09'0 0.0
2015-Jul-31 00:33N 43°27' E 005°09'0 0.0
2015-Jul-30 23:33N 43°27' E 005°09'0 0.0
2015-Jul-30 22:34N 43°27' E 005°09'0 0.0
2015-Jul-30 21:33N 43°27' E 005°09'5 5.1
2015-Jul-30 20:33N 43°24' E 005°03'5 4.3
2015-Jul-30 19:31N 43°24' E 004°57'0 0.1
2015-Jul-30 18:33N 43°24' E 004°57'0 0.0
2015-Jul-30 17:33N 43°24' E 004°57'0 0.0
2015-Jul-30 16:33N 43°24' E 004°57'0 0.0
2015-Jul-30 15:33N 43°24' E 004°57'5 4.9
2015-Jul-30 14:34N 43°19' E 004°59'1111.4
2015-Jul-30 13:33N 43°08' E 004°59'1413.7
2015-Jul-30 12:33N 42°57' E 004°48'1413.6
2015-Jul-30 11:33N 42°46' E 004°36'1413.2
2015-Jul-30 10:28N 42°35' E 004°25'1313.6
2015-Jul-30 09:33N 42°24' E 004°16'135 5.0
2015-Jul-29 06:32N 40°56' E 001°58'1312.9
2015-Jul-29 05:32N 40°45' E 001°51'1313.0
2015-Jul-29 04:33N 40°33' E 001°43'1313.2
2015-Jul-29 03:33N 40°22' E 001°35'1513.2
2015-Jul-29 02:27N 40°09' E 001°26'1314.0
2015-Jul-29 01:32N 39°58' E 001°19'6913.4
2015-Jul-28 20:22N 38°56' E 000°37'1313.9
2015-Jul-28 19:28N 38°45' E 000°30'2813.7
2015-Jul-28 17:25N 38°21' E 000°10'1213.6
2015-Jul-28 16:32N 38°11' E 000°02'1414.2
2015-Jul-28 15:33N 37°60' W 000°08'1414.1
2015-Jul-28 14:32N 37°48' W 000°18'1414.3
2015-Jul-28 13:33N 37°36' W 000°28'1414.2
2015-Jul-28 12:32N 37°25' W 000°40'1414.3
2015-Jul-28 11:33N 37°16' W 000°54'37313.7
2015-Jul-27 08:27N 36°20' W 008°34'1414.4
2015-Jul-27 07:28N 36°24' W 008°51'1314.2
2015-Jul-27 06:33N 36°27' W 009°06'1413.8
2015-Jul-27 05:33N 36°32' W 009°22'1414.2
2015-Jul-27 04:33N 36°42' W 009°34'1414.1
2015-Jul-27 03:33N 36°55' W 009°40'1414.2
2015-Jul-27 02:33N 37°09' W 009°45'1514.4
2015-Jul-27 01:33N 37°23' W 009°49'1514.5
2015-Jul-27 00:32N 37°38' W 009°54'1414.5
2015-Jul-26 23:33N 37°51' W 009°57'1514.9
2015-Jul-26 22:33N 38°06' W 010°01'1514.5
2015-Jul-26 21:33N 38°20' W 010°06'1414.4
2015-Jul-26 20:33N 38°34' W 010°10'1514.5
2015-Jul-26 19:33N 38°48' W 010°12'1414.3
2015-Jul-26 18:33N 39°03' W 010°12'1514.6
2015-Jul-26 17:33N 39°17' W 010°12'  
Track history (hours):
 
Tides and Currents Weather Stations Pressure Air Temp Water Temp Dewpoint Dewpoint Depression Visibility Wind Speed Wind Dir Waves Ship Positions

Trans Exeter

Last reported at 2015-Aug-05 05:33 UTC. Time now 2015-Aug-05 06:22 UTC.
Position N 41°45' E 003°31'.

Length 118 m; draft 6.8 m.

Type: Ship (hazmat cat C). MMSI: 248908000.

Date/timePositionNaut miles runAvg speedWind from/ knotsBaromVisibWave heightAir tempDewpointWater temp
2015-Aug-05 05:33N 41°45' E 003°31'6314.5
2015-Aug-05 01:14N 42°35' E 004°22'1014.7
2015-Aug-05 00:32N 42°43' E 004°31'1514.9
2015-Aug-04 23:33N 42°55' E 004°43'1414.5
2015-Aug-04 22:33N 43°06' E 004°55'1313.2
2015-Aug-04 21:33N 43°19' E 004°59'6 6.1
2015-Aug-04 20:33N 43°24' E 005°03'5 4.5
2015-Aug-04 19:33N 43°27' E 005°08'1 0.0
2015-Aug-03 15:22N 43°28' E 005°09'4 5.5
2015-Aug-03 14:33N 43°24' E 005°04'5 4.9
2015-Aug-03 13:33N 43°24' E 004°58'0 0.0
2015-Aug-03 12:33N 43°24' E 004°58'0 0.0
2015-Aug-03 11:32N 43°24' E 004°58'0 0.0
2015-Aug-03 10:32N 43°24' E 004°58'0 0.1
2015-Aug-03 09:32N 43°23' E 004°58'0 0.1
2015-Aug-03 08:32N 43°23' E 004°58'0 0.0
2015-Aug-03 07:32N 43°23' E 004°58'0 0.0
2015-Aug-03 06:32N 43°23' E 004°58'0 0.0
2015-Aug-03 05:32N 43°23' E 004°58'0 0.0
2015-Aug-03 04:32N 43°23' E 004°58'0 0.0
2015-Aug-03 03:32N 43°23' E 004°58'0 0.1
2015-Aug-03 02:33N 43°23' E 004°58'1211.8
2015-Aug-03 01:34N 43°12' E 005°02'1413.8
2015-Aug-03 00:33N 43°04' E 005°17'1414.2
2015-Aug-02 23:33N 42°55' E 005°33'1814.0
2015-Aug-02 22:15N 42°44' E 005°53'1012.6
2015-Aug-02 21:30N 42°41' E 006°05'1814.0
2015-Aug-02 20:12N 42°46' E 006°29'914.4
2015-Aug-02 19:33N 42°49' E 006°41'1414.1
2015-Aug-02 18:33N 42°53' E 006°59'1613.8
2015-Aug-02 17:22N 42°58' E 007°21'1713.8
2015-Aug-02 16:09N 43°03' E 007°42'814.2
2015-Aug-02 15:34N 43°06' E 007°54'1413.5
2015-Aug-02 14:33N 43°15' E 008°07'1414.1
2015-Aug-02 13:33N 43°26' E 008°19'1514.1
2015-Aug-02 12:30N 43°38' E 008°30'1414.4
2015-Aug-02 11:33N 43°49' E 008°41'1413.9
2015-Aug-02 10:34N 44°01' E 008°51'1515.3
2015-Aug-02 09:34N 44°16' E 008°46'9 8.8
2015-Aug-02 08:29N 44°25' E 008°50'0 0.0
2015-Aug-02 07:33N 44°25' E 008°50'0 0.0
2015-Aug-02 06:33N 44°25' E 008°50'0 0.0
2015-Aug-02 05:33N 44°25' E 008°50'0 0.0
2015-Aug-02 04:33N 44°25' E 008°50'0 0.0
2015-Aug-02 03:33N 44°25' E 008°50'0 0.0
2015-Aug-02 02:33N 44°25' E 008°50'0 0.0
2015-Aug-02 01:33N 44°25' E 008°50'0 0.0
2015-Aug-02 00:33N 44°25' E 008°50'0 0.0
2015-Aug-01 23:33N 44°25' E 008°50'0 0.0
2015-Aug-01 22:33N 44°25' E 008°50'0 0.0
2015-Aug-01 21:33N 44°25' E 008°50'0 0.0
2015-Aug-01 20:33N 44°25' E 008°50'0 0.0
2015-Aug-01 19:33N 44°25' E 008°50'0 0.0
2015-Aug-01 18:33N 44°25' E 008°50'0 0.0
2015-Aug-01 17:33N 44°25' E 008°50'0 0.0
2015-Aug-01 16:33N 44°25' E 008°50'0 0.0
2015-Aug-01 15:33N 44°25' E 008°50'3 3.0
2015-Aug-01 14:33N 44°23' E 008°47'8 7.9
2015-Aug-01 13:33N 44°16' E 008°43'1312.8
2015-Aug-01 12:33N 44°04' E 008°36'1313.0
2015-Aug-01 11:33N 43°52' E 008°28'1413.8
2015-Aug-01 10:33N 43°40' E 008°20'6513.0
2015-Aug-01 05:32N 42°56' E 007°13'4214.1
2015-Aug-01 02:33N 42°44' E 006°18'1414.4
2015-Aug-01 01:33N 42°41' E 005°59'1514.3
2015-Aug-01 00:32N 42°49' E 005°43'1414.3
2015-Jul-31 23:33N 42°57' E 005°27'1514.6
2015-Jul-31 22:33N 43°06' E 005°11'1413.7
2015-Jul-31 21:33N 43°17' E 004°60'8 7.6
2015-Jul-31 20:33N 43°24' E 005°02'4 3.8
2015-Jul-31 19:34N 43°26' E 005°06'3 2.0
2015-Jul-31 18:17N 43°27' E 005°09'0 0.0
2015-Jul-31 17:34N 43°27' E 005°09'0 0.0
2015-Jul-31 16:34N 43°27' E 005°09'0 0.0
2015-Jul-31 15:34N 43°27' E 005°09'0 0.0
2015-Jul-31 14:33N 43°27' E 005°09'0 0.0
2015-Jul-31 13:33N 43°27' E 005°09'0 0.0
2015-Jul-31 12:33N 43°27' E 005°09'0 0.0
2015-Jul-31 11:33N 43°27' E 005°09'0 0.0
2015-Jul-31 10:33N 43°27' E 005°09'0 0.0
2015-Jul-31 09:33N 43°27' E 005°09'0 0.0
2015-Jul-31 08:33N 43°27' E 005°09'0 0.0
2015-Jul-31 07:33N 43°27' E 005°09'0 0.0
2015-Jul-31 06:34N 43°27' E 005°09'0 0.0
2015-Jul-31 05:34N 43°27' E 005°09'0 0.0
2015-Jul-31 04:33N 43°27' E 005°09'0 0.0
2015-Jul-31 03:33N 43°27' E 005°09'0 0.0
2015-Jul-31 02:33N 43°27' E 005°09'0 0.0
2015-Jul-31 01:33N 43°27' E 005°09'0 0.0
2015-Jul-31 00:33N 43°27' E 005°09'0 0.0
2015-Jul-30 23:33N 43°27' E 005°09'0 0.0
2015-Jul-30 22:34N 43°27' E 005°09'0 0.0
2015-Jul-30 21:33N 43°27' E 005°09'5 5.1
2015-Jul-30 20:33N 43°24' E 005°03'5 4.3
2015-Jul-30 19:31N 43°24' E 004°57'0 0.1
2015-Jul-30 18:33N 43°24' E 004°57'0 0.0
2015-Jul-30 17:33N 43°24' E 004°57'0 0.0
2015-Jul-30 16:33N 43°24' E 004°57'0 0.0
2015-Jul-30 15:33N 43°24' E 004°57'5 4.9
2015-Jul-30 14:34N 43°19' E 004°59'1111.4
2015-Jul-30 13:33N 43°08' E 004°59'1413.7
2015-Jul-30 12:33N 42°57' E 004°48'1413.6
2015-Jul-30 11:33N 42°46' E 004°36'1413.2
2015-Jul-30 10:28N 42°35' E 004°25'1313.6
2015-Jul-30 09:33N 42°24' E 004°16'135 5.0
2015-Jul-29 06:32N 40°56' E 001°58'1312.9
2015-Jul-29 05:32N 40°45' E 001°51'1313.0
2015-Jul-29 04:33N 40°33' E 001°43'1313.2
2015-Jul-29 03:33N 40°22' E 001°35'1513.2
2015-Jul-29 02:27N 40°09' E 001°26'1314.0
2015-Jul-29 01:32N 39°58' E 001°19'6913.4
2015-Jul-28 20:22N 38°56' E 000°37'1313.9
2015-Jul-28 19:28N 38°45' E 000°30'2813.7
2015-Jul-28 17:25N 38°21' E 000°10'1213.6
2015-Jul-28 16:32N 38°11' E 000°02'1414.2
2015-Jul-28 15:33N 37°60' W 000°08'1414.1
2015-Jul-28 14:32N 37°48' W 000°18'1414.3
2015-Jul-28 13:33N 37°36' W 000°28'1414.2
2015-Jul-28 12:32N 37°25' W 000°40'1414.3
2015-Jul-28 11:33N 37°16' W 000°54'37313.7
2015-Jul-27 08:27N 36°20' W 008°34'1414.4
2015-Jul-27 07:28N 36°24' W 008°51'1314.2
2015-Jul-27 06:33N 36°27' W 009°06'1413.8
2015-Jul-27 05:33N 36°32' W 009°22'1414.2
2015-Jul-27 04:33N 36°42' W 009°34'1414.1
2015-Jul-27 03:33N 36°55' W 009°40'1414.2
2015-Jul-27 02:33N 37°09' W 009°45'1514.4
2015-Jul-27 01:33N 37°23' W 009°49'1514.5
2015-Jul-27 00:32N 37°38' W 009°54'1414.5
2015-Jul-26 23:33N 37°51' W 009°57'1514.9
2015-Jul-26 22:33N 38°06' W 010°01'1514.5
2015-Jul-26 21:33N 38°20' W 010°06'1414.4
2015-Jul-26 20:33N 38°34' W 010°10'1514.5
2015-Jul-26 19:33N 38°48' W 010°12'1414.3
2015-Jul-26 18:33N 39°03' W 010°12'1514.6
2015-Jul-26 17:33N 39°17' W 010°12'  

Dump ship's entire track history